createdAt,value
2019-04-26T00:02:07.707Z,56.37
2019-04-26T00:05:17.075Z,57.23
2019-04-26T00:08:24.861Z,59.11
2019-04-26T00:11:40.490Z,59.99
2019-04-26T00:15:02.529Z,60.98
2019-04-26T00:18:12.733Z,61.17
2019-04-26T00:21:19.899Z,61.88
2019-04-26T00:24:28.552Z,62.80
2019-04-26T00:27:36.893Z,61.67
2019-04-26T00:30:44.613Z,61.11
2019-04-26T00:33:52.329Z,60.80
2019-04-26T00:36:59.636Z,59.88
2019-04-26T00:40:10.374Z,59.02
2019-04-26T00:43:20.572Z,58.62
2019-04-26T00:46:30.548Z,59.42
2019-04-26T00:49:43.829Z,60.05
2019-04-26T00:52:50.677Z,59.75
2019-04-26T00:56:00.106Z,60.40
2019-04-26T00:59:09.801Z,60.40
2019-04-26T01:02:25.072Z,59.88
2019-04-26T01:05:35.621Z,60.24
2019-04-26T01:08:42.879Z,60.34
2019-04-26T01:11:50.772Z,60.54
2019-04-26T01:14:58.299Z,61.32
2019-04-26T01:18:05.764Z,62.17
2019-04-26T01:21:18.818Z,62.49
2019-04-26T01:24:31.802Z,63.04
2019-04-26T01:27:39.756Z,64.02
2019-04-26T01:30:48.389Z,64.50
2019-04-26T01:37:24.732Z,65.51
2019-04-26T01:40:35.910Z,66.48
2019-04-26T01:44:11.092Z,66.53
2019-04-26T01:47:18.528Z,66.94
2019-04-26T01:50:29.459Z,68.13
2019-04-26T01:53:37.477Z,67.85
2019-04-26T01:56:49.309Z,68.67
2019-04-26T02:00:01.962Z,68.88
2019-04-26T02:03:22.931Z,68.65
2019-04-26T02:06:34.858Z,68.96
2019-04-26T02:09:40.622Z,70.18
2019-04-26T02:12:48.952Z,70.36
2019-04-26T02:15:56.372Z,70.34
2019-04-26T02:19:04.587Z,71.04
2019-04-26T02:22:31.969Z,71.49
2019-04-26T02:25:39.764Z,71.78
2019-04-26T02:28:48.811Z,72.19
2019-04-26T02:32:03.653Z,73.15
2019-04-26T02:35:11.641Z,73.51
2019-04-26T02:38:19.786Z,72.39
2019-04-26T02:41:29.943Z,71.25
2019-04-26T02:44:56.983Z,69.20
2019-04-26T02:48:19.100Z,70.07
2019-04-26T02:51:34.092Z,71.24
2019-04-26T02:54:57.799Z,68.86
2019-04-26T02:58:05.396Z,69.50
2019-04-26T03:01:12.989Z,70.07
2019-04-26T03:04:24.295Z,69.27
2019-04-26T03:08:14.542Z,68.39
2019-04-26T03:11:27.271Z,67.88
2019-04-26T03:14:49.662Z,70.11
2019-04-26T03:18:33.472Z,71.12
2019-04-26T03:21:54.952Z,71.73
2019-04-26T03:25:36.955Z,71.66
2019-04-26T03:29:04.407Z,70.21
2019-04-26T03:33:23.855Z,70.84
2019-04-26T03:37:29.524Z,69.51
2019-04-26T03:40:55.135Z,71.42
2019-04-26T03:44:24.823Z,71.90
2019-04-26T03:47:42.360Z,72.49
2019-04-26T03:51:04.904Z,73.05
2019-04-26T03:54:20.968Z,73.66
2019-04-26T03:57:47.117Z,73.59
2019-04-26T04:01:01.166Z,74.48
2019-04-26T04:04:28.716Z,76.36
2019-04-26T04:07:45.961Z,79.05
2019-04-26T04:11:00.600Z,80.74
2019-04-26T04:14:27.083Z,83.18
2019-04-26T04:17:50.808Z,84.47
2019-04-26T04:21:48.391Z,86.01
2019-04-26T04:25:02.952Z,87.65
2019-04-26T04:29:39.946Z,88.17
2019-04-26T04:32:59.981Z,88.88
2019-04-26T04:36:21.501Z,89.89
2019-04-26T04:39:53.528Z,91.13
2019-04-26T04:43:31.891Z,91.14
2019-04-26T04:47:32.848Z,90.72
2019-04-26T04:50:51.230Z,90.96
2019-04-26T04:54:19.568Z,91.63
2019-04-26T04:58:03.981Z,91.83
2019-04-26T05:01:44.297Z,92.98
2019-04-26T05:05:26.728Z,91.57
2019-04-26T05:09:09.088Z,92.05
2019-04-26T05:12:46.235Z,91.79
2019-04-26T05:16:33.320Z,92.01
2019-04-26T05:20:29.864Z,92.22
2019-04-26T05:24:13.142Z,91.67
2019-04-26T05:28:02.113Z,92.23
2019-04-26T05:31:37.003Z,91.51
2019-04-26T05:35:05.238Z,92.11
2019-04-26T05:38:51.175Z,92.24
2019-04-26T05:42:40.377Z,91.71
2019-04-26T05:46:31.214Z,90.89
2019-04-26T05:50:44.902Z,89.74
2019-04-26T05:54:58.474Z,89.19
2019-04-26T05:58:39.007Z,86.83
2019-04-26T06:02:30.447Z,83.75
2019-04-26T06:06:30.422Z,83.33
2019-04-26T06:10:30.099Z,80.86
2019-04-26T06:14:51.423Z,80.75
2019-04-26T06:18:40.220Z,78.97
2019-04-26T06:22:28.040Z,77.93
2019-04-26T06:25:57.521Z,76.81
2019-04-26T06:29:18.126Z,79.03
2019-04-26T06:32:35.840Z,75.88
2019-04-26T06:35:48.738Z,75.24
2019-04-26T06:39:34.481Z,74.75
2019-04-26T06:43:05.444Z,72.87
2019-04-26T06:46:56.216Z,72.03
2019-04-26T06:50:24.807Z,72.61
2019-04-26T06:54:05.605Z,73.35
2019-04-26T06:58:01.406Z,73.74
2019-04-26T07:01:28.902Z,73.13
2019-04-26T07:05:33.289Z,73.08
2019-04-26T07:09:02.221Z,74.76
2019-04-26T07:12:41.312Z,70.92
2019-04-26T07:16:30.035Z,65.09
2019-04-26T07:20:31.852Z,65.31
2019-04-26T07:24:22.260Z,66.91
2019-04-26T07:28:03.314Z,68.84
2019-04-26T07:31:17.274Z,67.85
2019-04-26T07:34:52.576Z,66.62
2019-04-26T07:39:34.137Z,66.34
2019-04-26T07:43:41.739Z,65.71
2019-04-26T07:47:41.502Z,65.39
2019-04-26T07:51:51.869Z,66.93
2019-04-26T07:55:34.238Z,65.45
2019-04-26T07:59:55.475Z,64.25
2019-04-26T08:03:43.497Z,63.06
2019-04-26T08:07:04.984Z,64.51
2019-04-26T08:10:19.392Z,67.39
2019-04-26T08:13:32.581Z,68.76
2019-04-26T08:17:28.117Z,69.77
2019-04-26T08:21:12.367Z,70.95
2019-04-26T08:24:27.785Z,71.69
2019-04-26T08:27:36.221Z,73.10
2019-04-26T08:30:47.704Z,71.05
2019-04-26T08:34:03.952Z,64.70
2019-04-26T08:37:22.547Z,65.90
2019-04-26T08:40:33.123Z,64.67
2019-04-26T08:43:59.792Z,66.63
2019-04-26T08:47:36.735Z,64.53
2019-04-26T08:50:47.307Z,64.06
2019-04-26T08:53:57.913Z,63.44
2019-04-26T08:57:10.003Z,60.99
2019-04-26T09:00:28.971Z,62.37
2019-04-26T09:04:01.698Z,64.17
2019-04-26T09:07:17.400Z,64.91
2019-04-26T09:10:28.692Z,64.96
2019-04-26T09:13:42.919Z,65.08
2019-04-26T09:16:50.943Z,67.03
2019-04-26T09:19:58.384Z,69.16
2019-04-26T09:23:40.211Z,68.86
2019-04-26T09:27:05.608Z,69.43
2019-04-26T09:30:44.071Z,68.50
2019-04-26T09:33:56.216Z,66.30
2019-04-26T09:37:04.153Z,67.09
2019-04-26T09:40:19.747Z,68.13
2019-04-26T09:43:31.497Z,69.99
2019-04-26T09:46:52.939Z,70.89
2019-04-26T09:50:21.204Z,71.44
2019-04-26T09:53:28.842Z,71.99
2019-04-26T09:56:36.519Z,71.84
2019-04-26T09:59:44.036Z,73.61
2019-04-26T10:02:51.740Z,73.17
2019-04-26T10:05:59.630Z,73.80
2019-04-26T10:09:17.311Z,74.09
2019-04-26T10:12:32.631Z,75.08
2019-04-26T10:16:12.402Z,76.83
2019-04-26T10:19:31.706Z,76.43
2019-04-26T10:22:39.589Z,77.65
2019-04-26T10:25:47.265Z,79.58
2019-04-26T10:28:57.077Z,79.36
2019-04-26T10:32:04.530Z,78.28
2019-04-26T10:35:12.306Z,78.08
2019-04-26T10:38:23.577Z,79.90
2019-04-26T10:41:28.796Z,79.28
2019-04-26T10:44:39.890Z,78.80
2019-04-26T10:47:46.121Z,78.82
2019-04-26T10:50:53.768Z,79.45
2019-04-26T10:54:10.500Z,80.13
2019-04-26T10:57:29.269Z,80.03
2019-04-26T11:00:39.228Z,80.70
2019-04-26T11:03:46.487Z,79.53
2019-04-26T11:06:54.278Z,80.10
2019-04-26T11:10:03.008Z,80.85
2019-04-26T11:13:10.633Z,80.48
2019-04-26T11:16:18.880Z,82.11
2019-04-26T11:19:26.810Z,82.87
2019-04-26T11:22:37.635Z,82.90
2019-04-26T11:25:44.076Z,82.82
2019-04-26T11:28:55.523Z,82.24
2019-04-26T11:32:02.695Z,81.23
2019-04-26T11:35:10.324Z,81.55
2019-04-26T11:38:17.780Z,81.95
2019-04-26T11:41:25.487Z,82.76
2019-04-26T11:44:33.190Z,83.19
2019-04-26T11:47:54.258Z,83.51
2019-04-26T11:50:52.209Z,83.23
2019-04-26T11:53:59.487Z,83.88
2019-04-26T11:57:08.211Z,84.77
2019-04-26T12:00:27.429Z,84.91
2019-04-26T12:03:34.397Z,85.06
2019-04-26T12:06:50.131Z,85.33
2019-04-26T12:09:59.161Z,85.89
2019-04-26T12:13:06.526Z,85.70
2019-04-26T12:16:14.678Z,86.33
2019-04-26T12:19:23.717Z,86.52
2019-04-26T12:22:31.193Z,87.21
2019-04-26T12:25:42.972Z,88.49
2019-04-26T12:28:48.009Z,89.28
2019-04-26T12:31:55.515Z,89.13
2019-04-26T12:35:03.319Z,89.85
2019-04-26T12:38:10.490Z,90.16
2019-04-26T12:41:39.252Z,90.96
2019-04-26T12:44:41.174Z,91.02
2019-04-26T12:48:22.359Z,94.16
2019-04-26T12:51:30.442Z,95.19
2019-04-26T12:54:39.013Z,98.65
2019-04-26T12:57:48.166Z,99.93
2019-04-26T13:00:56.045Z,100.00
2019-04-26T13:04:04.681Z,100.00
2019-04-26T13:07:23.731Z,100.00
2019-04-26T13:10:49.954Z,100.00
2019-04-26T13:14:01.038Z,100.00
2019-04-26T13:17:11.994Z,100.00
2019-04-26T13:20:20.026Z,100.00
2019-04-26T13:23:32.301Z,100.00
2019-04-26T13:26:40.554Z,98.27
2019-04-26T13:30:02.450Z,96.96
2019-04-26T13:33:10.115Z,96.55
2019-04-26T13:36:18.573Z,96.04
2019-04-26T13:39:51.195Z,99.95
2019-04-26T13:43:00.265Z,100.00
2019-04-26T13:46:30.546Z,100.00
2019-04-26T13:50:01.735Z,100.00
2019-04-26T13:53:09.311Z,100.00
2019-04-26T13:56:16.614Z,100.00
2019-04-26T13:59:24.107Z,100.00
2019-04-26T14:02:31.273Z,100.00
2019-04-26T14:05:38.858Z,100.00
2019-04-26T14:08:47.598Z,100.00
2019-04-26T14:11:58.075Z,100.00
2019-04-26T14:15:08.465Z,100.00
2019-04-26T14:18:14.752Z,100.00
2019-04-26T14:21:22.737Z,100.00
2019-04-26T14:24:38.610Z,100.00
2019-04-26T14:27:49.999Z,100.00
2019-04-26T14:30:57.626Z,100.00
2019-04-26T14:34:07.019Z,100.00
2019-04-26T14:37:15.595Z,100.00
2019-04-26T14:40:24.095Z,99.56
2019-04-26T14:43:40.532Z,98.28
2019-04-26T14:46:48.560Z,97.17
2019-04-26T14:49:53.428Z,94.35
2019-04-26T14:53:02.458Z,96.81
2019-04-26T14:56:11.065Z,95.56
2019-04-26T14:59:39.340Z,93.62
2019-04-26T15:03:03.282Z,94.86
2019-04-26T15:06:21.516Z,94.20
2019-04-26T15:09:33.074Z,95.29
2019-04-26T15:12:46.124Z,97.94
2019-04-26T15:15:48.624Z,98.99
2019-04-26T15:18:56.287Z,99.72
2019-04-26T15:22:10.405Z,100.00
2019-04-26T15:25:16.251Z,100.00
2019-04-26T15:28:23.628Z,100.00
2019-04-26T15:31:32.984Z,100.00
2019-04-26T15:34:40.660Z,100.00
2019-04-26T15:37:49.414Z,100.00
2019-04-26T15:41:19.508Z,100.00
2019-04-26T15:44:35.525Z,100.00
2019-04-26T15:48:02.772Z,100.00
2019-04-26T15:51:10.161Z,100.00
2019-04-26T15:54:17.846Z,100.00
2019-04-26T15:57:30.888Z,100.00
2019-04-26T16:00:36.262Z,100.00
2019-04-26T16:03:45.846Z,100.00
2019-04-26T16:06:53.548Z,100.00
2019-04-26T16:10:00.800Z,100.00
2019-04-26T16:13:17.989Z,100.00
2019-04-26T16:16:20.698Z,100.00
2019-04-26T16:19:27.858Z,100.00
2019-04-26T16:22:37.725Z,100.00
2019-04-26T16:25:48.006Z,100.00
2019-04-26T16:29:18.168Z,100.00
2019-04-26T16:32:58.855Z,100.00
2019-04-26T16:36:06.439Z,100.00
2019-04-26T16:39:13.885Z,100.00
2019-04-26T16:42:23.313Z,100.00
2019-04-26T16:45:32.680Z,100.00
2019-04-26T16:48:40.005Z,100.00
2019-04-26T16:51:53.878Z,98.23
2019-04-26T16:55:02.336Z,98.27
2019-04-26T16:58:06.095Z,97.71
2019-04-26T17:01:15.136Z,96.55
2019-04-26T17:04:29.037Z,96.45
2019-04-26T17:07:39.181Z,95.73
2019-04-26T17:10:43.172Z,96.62
2019-04-26T17:13:56.471Z,95.49
2019-04-26T17:17:00.608Z,95.27
2019-04-26T17:20:10.786Z,96.28
2019-04-26T17:23:40.270Z,96.95
2019-04-26T17:26:54.923Z,98.06
2019-04-26T17:30:05.348Z,98.00
2019-04-26T17:33:13.403Z,98.14
2019-04-26T17:36:21.872Z,98.13
2019-04-26T17:39:30.369Z,98.80
2019-04-26T17:42:37.993Z,100.00
2019-04-26T17:45:46.037Z,100.00
2019-04-26T17:48:53.742Z,100.00
2019-04-26T17:52:02.020Z,100.00
2019-04-26T17:55:11.858Z,100.00
2019-04-26T17:58:27.811Z,100.00
2019-04-26T18:01:42.875Z,100.00
2019-04-26T18:04:40.706Z,100.00
2019-04-26T18:07:56.243Z,100.00
2019-04-26T18:10:58.190Z,100.00
2019-04-26T18:14:08.210Z,100.00
2019-04-26T18:17:32.984Z,100.00
2019-04-26T18:21:05.029Z,100.00
2019-04-26T18:24:13.329Z,100.00
2019-04-26T18:27:21.102Z,100.00
2019-04-26T18:30:28.648Z,100.00
2019-04-26T18:33:36.048Z,100.00
2019-04-26T18:36:43.686Z,100.00
2019-04-26T18:39:51.290Z,100.00
2019-04-26T18:42:59.057Z,100.00
2019-04-26T18:46:15.645Z,100.00
2019-04-26T18:49:26.993Z,100.00
2019-04-26T18:52:37.318Z,100.00
2019-04-26T18:55:45.614Z,100.00
2019-04-26T18:58:55.656Z,100.00
2019-04-26T19:02:04.095Z,100.00
2019-04-26T19:05:14.130Z,100.00
2019-04-26T19:08:27.016Z,100.00
2019-04-26T19:11:32.706Z,100.00
2019-04-26T19:15:03.320Z,100.00
2019-04-26T19:18:22.199Z,100.00
2019-04-26T19:21:38.959Z,100.00
2019-04-26T19:24:44.194Z,100.00
2019-04-26T19:27:53.888Z,100.00
2019-04-26T19:31:02.420Z,100.00
2019-04-26T19:34:11.579Z,100.00
2019-04-26T19:37:19.406Z,100.00
2019-04-26T19:40:27.780Z,100.00
2019-04-26T19:43:39.215Z,100.00
2019-04-26T19:46:54.075Z,100.00
2019-04-26T19:50:13.561Z,100.00
2019-04-26T19:53:47.354Z,100.00
2019-04-26T19:57:03.659Z,100.00
2019-04-26T20:00:11.065Z,100.00
2019-04-26T20:03:19.739Z,100.00
2019-04-26T20:06:27.273Z,100.00
2019-04-26T20:09:34.890Z,100.00
2019-04-26T20:12:42.490Z,100.00
2019-04-26T20:15:52.829Z,100.00
2019-04-26T20:19:00.687Z,100.00
2019-04-26T20:22:08.525Z,100.00
2019-04-26T20:25:16.730Z,100.00
2019-04-26T20:28:24.245Z,100.00
2019-04-26T20:31:54.511Z,100.00
2019-04-26T20:35:26.760Z,100.00
2019-04-26T20:38:35.847Z,100.00
2019-04-26T20:41:40.850Z,100.00
2019-04-26T20:44:51.407Z,100.00
2019-04-26T20:47:58.987Z,100.00
2019-04-26T20:51:10.785Z,100.00
2019-04-26T20:54:17.486Z,100.00
2019-04-26T20:57:26.536Z,100.00
2019-04-26T21:00:36.600Z,100.00
2019-04-26T21:03:45.965Z,100.00
2019-04-26T21:06:53.817Z,100.00
2019-04-26T21:10:01.237Z,100.00
2019-04-26T21:13:08.923Z,100.00
2019-04-26T21:16:16.763Z,100.00
2019-04-26T21:19:24.446Z,100.00
2019-04-26T21:22:31.995Z,100.00
2019-04-26T21:25:47.161Z,100.00
2019-04-26T21:29:13.432Z,100.00
2019-04-26T21:32:47.169Z,100.00
2019-04-26T21:36:20.751Z,100.00
2019-04-26T21:39:39.375Z,100.00
2019-04-26T21:42:45.559Z,100.00
2019-04-26T21:45:57.568Z,100.00
2019-04-26T21:49:03.654Z,100.00
2019-04-26T21:52:11.402Z,100.00
2019-04-26T21:55:19.212Z,100.00
2019-04-26T21:58:26.913Z,100.00
2019-04-26T22:01:34.805Z,100.00
2019-04-26T22:04:43.613Z,100.00
2019-04-26T22:07:53.403Z,100.00
2019-04-26T22:11:00.881Z,100.00
2019-04-26T22:14:19.863Z,100.00
2019-04-26T22:17:40.342Z,100.00
2019-04-26T22:20:54.580Z,100.00
2019-04-26T22:24:16.962Z,100.00
2019-04-26T22:27:25.281Z,100.00
2019-04-26T22:30:34.073Z,100.00
2019-04-26T22:33:42.862Z,100.00
2019-04-26T22:36:50.453Z,100.00
2019-04-26T22:40:00.480Z,100.00
2019-04-26T22:43:26.626Z,100.00
2019-04-26T22:46:54.345Z,100.00
2019-04-26T22:50:01.924Z,100.00
2019-04-26T22:53:11.841Z,100.00
2019-04-26T22:56:19.001Z,100.00
2019-04-26T22:59:26.862Z,100.00
2019-04-26T23:02:34.178Z,100.00
2019-04-26T23:05:43.273Z,100.00
2019-04-26T23:08:51.238Z,100.00
2019-04-26T23:12:10.413Z,100.00
2019-04-26T23:15:33.792Z,100.00
2019-04-26T23:18:51.280Z,100.00
2019-04-26T23:21:59.125Z,100.00
2019-04-26T23:25:06.596Z,100.00
2019-04-26T23:28:14.129Z,100.00
2019-04-26T23:31:23.604Z,100.00
2019-04-26T23:34:31.023Z,100.00
2019-04-26T23:37:38.595Z,100.00
2019-04-26T23:40:46.361Z,100.00
2019-04-26T23:43:56.527Z,100.00
2019-04-26T23:47:18.211Z,100.00
2019-04-26T23:50:14.046Z,100.00
2019-04-26T23:53:21.532Z,100.00
2019-04-26T23:56:28.910Z,100.00
2019-04-26T23:59:36.362Z,100.00
